createdAt,value
2023-06-10T00:00:43.828Z,72.71
2023-06-10T00:01:43.928Z,72.71
2023-06-10T00:02:44.106Z,72.74
2023-06-10T00:03:44.339Z,72.85
2023-06-10T00:04:44.235Z,72.91
2023-06-10T00:05:44.210Z,72.91
2023-06-10T00:06:44.289Z,72.91
2023-06-10T00:07:44.378Z,72.94
2023-06-10T00:08:44.456Z,72.94
2023-06-10T00:09:44.527Z,72.94
2023-06-10T00:10:44.632Z,72.94
2023-06-10T00:11:44.698Z,73.05
2023-06-10T00:12:44.811Z,72.94
2023-06-10T00:13:44.841Z,72.94
2023-06-10T00:14:44.933Z,72.85
2023-06-10T00:15:45.013Z,72.94
2023-06-10T00:16:45.136Z,72.94
2023-06-10T00:17:45.232Z,73.25
2023-06-10T00:18:45.268Z,73.45
2023-06-10T00:19:45.365Z,73.35
2023-06-10T00:20:45.439Z,73.25
2023-06-10T00:21:45.513Z,73.25
2023-06-10T00:22:45.651Z,73.25
2023-06-10T00:23:45.680Z,73.14
2023-06-10T00:24:45.743Z,72.85
2023-06-10T00:25:45.829Z,72.74
2023-06-10T00:26:45.926Z,72.64
2023-06-10T00:27:46.029Z,72.54
2023-06-10T00:28:46.068Z,72.44
2023-06-10T00:29:46.146Z,72.20
2023-06-10T00:30:46.242Z,72.11
2023-06-10T00:31:46.407Z,72.00
2023-06-10T00:32:46.479Z,72.00
2023-06-10T00:33:46.487Z,71.91
2023-06-10T00:34:46.569Z,71.80
2023-06-10T00:35:46.636Z,71.70
2023-06-10T00:36:46.711Z,71.80
2023-06-10T00:37:46.808Z,71.91
2023-06-10T00:38:46.885Z,71.97
2023-06-10T00:39:46.983Z,71.87
2023-06-10T00:40:47.062Z,71.87
2023-06-10T00:41:47.132Z,72.00
2023-06-10T00:42:47.249Z,72.11
2023-06-10T00:43:47.293Z,72.20
2023-06-10T00:44:47.379Z,72.20
2023-06-10T00:45:47.475Z,72.31
2023-06-10T00:46:47.520Z,72.20
2023-06-10T00:47:47.675Z,72.20
2023-06-10T00:48:47.690Z,72.31
2023-06-10T00:49:47.765Z,72.31
2023-06-10T00:50:47.845Z,72.41
2023-06-10T00:51:47.921Z,72.51
2023-06-10T00:52:48.057Z,72.44
2023-06-10T00:53:48.088Z,72.44
2023-06-10T00:54:48.265Z,72.54
2023-06-10T00:55:48.232Z,72.64
2023-06-10T00:56:48.300Z,72.94
2023-06-10T00:57:48.404Z,72.85
2023-06-10T00:58:48.444Z,72.94
2023-06-10T00:59:48.549Z,73.14
2023-06-10T01:00:48.634Z,73.25
2023-06-10T01:01:48.779Z,73.35
2023-06-10T01:02:48.909Z,73.45
2023-06-10T01:03:48.834Z,73.35
2023-06-10T01:04:48.909Z,73.35
2023-06-10T01:05:48.977Z,73.48
2023-06-10T01:06:49.056Z,73.79
2023-06-10T01:07:49.136Z,73.88
2023-06-10T01:08:49.219Z,73.88
2023-06-10T01:09:49.295Z,73.99
2023-06-10T01:10:49.380Z,74.29
2023-06-10T01:11:49.463Z,74.39
2023-06-10T01:12:49.673Z,74.63
2023-06-10T01:13:49.615Z,74.73
2023-06-10T01:14:49.733Z,74.93
2023-06-10T01:15:49.796Z,75.13
2023-06-10T01:16:49.945Z,75.23
2023-06-10T01:17:49.985Z,75.43
2023-06-10T01:18:50.038Z,75.43
2023-06-10T01:19:50.144Z,75.34
2023-06-10T01:20:51.681Z,75.63
2023-06-10T01:21:50.259Z,75.63
2023-06-10T01:22:50.394Z,75.57
2023-06-10T01:23:50.484Z,75.67
2023-06-10T01:24:50.562Z,75.77
2023-06-10T01:25:50.620Z,75.98
2023-06-10T01:26:50.693Z,75.98
2023-06-10T01:27:50.833Z,75.77
2023-06-10T01:28:50.890Z,75.67
2023-06-10T01:29:50.976Z,75.77
2023-06-10T01:30:51.070Z,75.98
2023-06-10T01:31:51.194Z,76.07
2023-06-10T01:32:51.308Z,76.18
2023-06-10T01:33:51.308Z,76.18
2023-06-10T01:34:51.370Z,76.07
2023-06-10T01:35:51.463Z,76.11
2023-06-10T01:36:51.544Z,76.11
2023-06-10T01:37:51.653Z,76.11
2023-06-10T01:38:51.706Z,76.31
2023-06-10T01:39:51.788Z,76.31
2023-06-10T01:40:51.861Z,76.62
2023-06-10T01:41:51.919Z,76.72
2023-06-10T01:42:52.010Z,76.72
2023-06-10T01:43:52.114Z,76.82
2023-06-10T01:44:52.179Z,76.82
2023-06-10T01:45:52.271Z,76.72
2023-06-10T01:46:52.436Z,76.72
2023-06-10T01:47:52.491Z,76.62
2023-06-10T01:48:52.508Z,76.42
2023-06-10T01:49:52.608Z,76.51
2023-06-10T01:50:52.667Z,76.42
2023-06-10T01:51:52.742Z,76.51
2023-06-10T01:52:52.853Z,76.72
2023-06-10T01:53:52.900Z,76.72
2023-06-10T01:54:52.981Z,76.72
2023-06-10T01:55:53.082Z,76.72
2023-06-10T01:56:53.143Z,76.72
2023-06-10T01:57:53.251Z,76.75
2023-06-10T01:58:53.285Z,77.06
2023-06-10T01:59:53.386Z,77.15
2023-06-10T02:00:53.502Z,77.36
2023-06-10T02:01:53.561Z,77.36
2023-06-10T02:02:53.830Z,77.56
2023-06-10T02:03:53.785Z,77.76
2023-06-10T02:04:53.810Z,77.97
2023-06-10T02:05:53.899Z,78.06
2023-06-10T02:06:54.000Z,78.17
2023-06-10T02:07:54.119Z,78.17
2023-06-10T02:08:54.162Z,78.30
2023-06-10T02:09:54.256Z,78.41
2023-06-10T02:10:54.333Z,78.50
2023-06-10T02:11:54.420Z,78.71
2023-06-10T02:12:54.561Z,78.61
2023-06-10T02:13:54.598Z,78.61
2023-06-10T02:14:54.692Z,79.01
2023-06-10T02:15:54.804Z,78.91
2023-06-10T02:16:54.909Z,78.81
2023-06-10T02:17:54.978Z,79.15
2023-06-10T02:18:55.018Z,79.21
2023-06-10T02:19:55.116Z,79.05
2023-06-10T02:20:55.204Z,79.05
2023-06-10T02:21:55.293Z,78.85
2023-06-10T02:22:55.399Z,78.75
2023-06-10T02:23:55.559Z,78.75
2023-06-10T02:24:55.509Z,78.85
2023-06-10T02:25:55.591Z,78.85
2023-06-10T02:26:55.677Z,78.95
2023-06-10T02:27:55.803Z,78.95
2023-06-10T02:28:55.864Z,78.95
2023-06-10T02:29:55.987Z,78.95
2023-06-10T02:30:56.017Z,79.25
2023-06-10T02:31:56.202Z,79.35
2023-06-10T02:32:56.200Z,79.25
2023-06-10T02:33:56.262Z,79.25
2023-06-10T02:34:56.317Z,79.15
2023-06-10T02:35:56.414Z,79.25
2023-06-10T02:36:56.483Z,79.25
2023-06-10T02:37:56.625Z,79.15
2023-06-10T02:38:56.632Z,78.95
2023-06-10T02:39:56.735Z,78.75
2023-06-10T02:40:56.781Z,78.78
2023-06-10T02:41:56.886Z,78.78
2023-06-10T02:42:56.973Z,78.68
2023-06-10T02:43:57.032Z,78.68
2023-06-10T02:44:57.149Z,78.68
2023-06-10T02:45:57.219Z,78.78
2023-06-10T02:46:57.289Z,78.68
2023-06-10T02:47:57.404Z,78.88
2023-06-10T02:48:57.476Z,78.88
2023-06-10T02:49:57.530Z,79.13
2023-06-10T02:50:57.620Z,79.33
2023-06-10T02:51:57.704Z,79.43
2023-06-10T02:52:57.799Z,79.53
2023-06-10T02:53:57.865Z,79.63
2023-06-10T02:54:57.964Z,80.24
2023-06-10T02:55:58.045Z,80.54
2023-06-10T02:56:58.147Z,80.64
2023-06-10T02:57:58.235Z,80.54
2023-06-10T02:58:58.287Z,80.44
2023-06-10T02:59:58.366Z,80.24
2023-06-10T03:00:58.463Z,80.13
2023-06-10T03:01:58.565Z,80.13
2023-06-10T03:02:58.997Z,80.24
2023-06-10T03:03:58.697Z,80.38
2023-06-10T03:04:58.772Z,80.58
2023-06-10T03:05:58.843Z,80.78
2023-06-10T03:06:58.961Z,80.68
2023-06-10T03:07:59.090Z,80.58
2023-06-10T03:08:59.106Z,80.68
2023-06-10T03:09:59.197Z,80.68
2023-06-10T03:10:59.302Z,80.78
2023-06-10T03:11:59.384Z,80.78
2023-06-10T03:12:59.508Z,80.78
2023-06-10T03:13:59.569Z,80.78
2023-06-10T03:14:59.655Z,80.78
2023-06-10T03:15:59.797Z,80.78
2023-06-10T03:16:59.794Z,80.78
2023-06-10T03:17:59.943Z,80.88
2023-06-10T03:18:59.976Z,80.98
2023-06-10T03:20:00.044Z,80.98
2023-06-10T03:21:00.092Z,80.88
2023-06-10T03:22:00.183Z,80.88
2023-06-10T03:23:00.272Z,80.88
2023-06-10T03:24:00.370Z,80.78
2023-06-10T03:25:00.404Z,80.68
2023-06-10T03:26:00.454Z,80.58
2023-06-10T03:27:00.558Z,80.47
2023-06-10T03:28:00.641Z,80.27
2023-06-10T03:29:00.713Z,80.27
2023-06-10T03:30:00.769Z,80.38
2023-06-10T03:31:00.900Z,80.38
2023-06-10T03:32:00.965Z,80.52
2023-06-10T03:33:01.146Z,80.92
2023-06-10T03:34:01.126Z,81.23
2023-06-10T03:35:01.240Z,81.52
2023-06-10T03:36:01.298Z,81.52
2023-06-10T03:37:01.398Z,81.52
2023-06-10T03:38:01.504Z,81.39
2023-06-10T03:39:01.565Z,81.18
2023-06-10T03:40:01.623Z,81.18
2023-06-10T03:41:01.696Z,81.09
2023-06-10T03:42:01.764Z,81.09
2023-06-10T03:43:01.873Z,81.09
2023-06-10T03:44:01.937Z,81.09
2023-06-10T03:45:02.013Z,80.88
2023-06-10T03:46:02.117Z,80.88
2023-06-10T03:47:02.188Z,80.68
2023-06-10T03:48:02.411Z,80.68
2023-06-10T03:49:02.359Z,80.68
2023-06-10T03:50:02.421Z,80.68
2023-06-10T03:51:02.506Z,80.68
2023-06-10T03:52:02.555Z,80.68
2023-06-10T03:53:02.678Z,80.78
2023-06-10T03:54:02.729Z,80.68
2023-06-10T03:55:02.827Z,80.68
2023-06-10T03:56:02.898Z,80.68
2023-06-10T03:57:02.992Z,80.78
2023-06-10T03:58:03.075Z,80.88
2023-06-10T03:59:03.149Z,80.98
2023-06-10T04:00:03.209Z,80.98
2023-06-10T04:01:03.289Z,80.98
2023-06-10T04:02:03.386Z,80.98
2023-06-10T04:03:03.524Z,80.98
2023-06-10T04:04:03.540Z,80.88
2023-06-10T04:05:03.647Z,80.88
2023-06-10T04:06:03.748Z,80.98
2023-06-10T04:07:03.812Z,80.78
2023-06-10T04:08:03.891Z,80.84
2023-06-10T04:09:03.948Z,80.74
2023-06-10T04:10:04.012Z,80.64
2023-06-10T04:11:04.118Z,80.54
2023-06-10T04:12:04.174Z,80.34
2023-06-10T04:13:04.362Z,80.24
2023-06-10T04:14:04.332Z,80.24
2023-06-10T04:15:04.436Z,80.24
2023-06-10T04:16:04.530Z,80.24
2023-06-10T04:17:04.669Z,80.47
2023-06-10T04:18:04.804Z,80.47
2023-06-10T04:19:04.777Z,80.68
2023-06-10T04:20:04.872Z,80.58
2023-06-10T04:21:04.997Z,80.68
2023-06-10T04:22:05.078Z,80.68
2023-06-10T04:23:05.163Z,80.88
2023-06-10T04:24:05.258Z,80.98
2023-06-10T04:25:05.296Z,81.09
2023-06-10T04:26:05.342Z,81.09
2023-06-10T04:27:05.447Z,81.29
2023-06-10T04:28:05.514Z,81.29
2023-06-10T04:29:05.587Z,81.35
2023-06-10T04:30:05.645Z,81.45
2023-06-10T04:31:05.768Z,81.25
2023-06-10T04:32:05.898Z,81.15
2023-06-10T04:33:06.000Z,81.01
2023-06-10T04:34:06.036Z,80.91
2023-06-10T04:35:06.227Z,80.80
2023-06-10T04:36:06.151Z,80.71
2023-06-10T04:37:06.240Z,80.71
2023-06-10T04:38:06.362Z,80.60
2023-06-10T04:39:06.412Z,80.57
2023-06-10T04:40:06.501Z,80.46
2023-06-10T04:41:06.595Z,80.46
2023-06-10T04:42:06.689Z,80.46
2023-06-10T04:43:06.810Z,80.46
2023-06-10T04:44:06.847Z,80.46
2023-06-10T04:45:07.259Z,80.46
2023-06-10T04:46:08.960Z,80.32
2023-06-10T04:47:07.174Z,80.22
2023-06-10T04:48:07.289Z,80.32
2023-06-10T04:49:07.283Z,80.22
2023-06-10T04:50:07.362Z,80.12
2023-06-10T04:51:07.453Z,80.02
2023-06-10T04:52:07.500Z,79.88
2023-06-10T04:53:07.619Z,79.88
2023-06-10T04:54:07.652Z,79.79
2023-06-10T04:55:08.027Z,79.79
2023-06-10T04:56:07.827Z,79.79
2023-06-10T04:57:07.917Z,79.68
2023-06-10T04:58:08.017Z,79.58
2023-06-10T04:59:08.087Z,79.58
2023-06-10T05:00:08.150Z,79.58
2023-06-10T05:01:08.235Z,79.54
2023-06-10T05:02:08.327Z,79.44
2023-06-10T05:03:08.536Z,79.44
2023-06-10T05:04:08.495Z,79.34
2023-06-10T05:05:08.835Z,79.24
2023-06-10T05:06:08.616Z,79.14
2023-06-10T05:07:08.697Z,79.00
2023-06-10T05:08:08.874Z,78.90
2023-06-10T05:09:08.877Z,78.50
2023-06-10T05:10:08.923Z,78.30
2023-06-10T05:11:09.031Z,78.30
2023-06-10T05:12:09.082Z,78.36
2023-06-10T05:13:09.193Z,78.16
2023-06-10T05:14:09.216Z,77.95
2023-06-10T05:15:09.691Z,77.86
2023-06-10T05:16:09.420Z,77.72
2023-06-10T05:17:09.463Z,77.62
2023-06-10T05:18:09.625Z,77.62
2023-06-10T05:19:09.634Z,77.51
2023-06-10T05:20:09.703Z,77.42
2023-06-10T05:21:09.777Z,77.42
2023-06-10T05:22:09.849Z,77.17
2023-06-10T05:23:09.941Z,76.87
2023-06-10T05:24:09.998Z,76.67
2023-06-10T05:25:10.469Z,76.77
2023-06-10T05:26:10.144Z,76.87
2023-06-10T05:27:10.221Z,77.04
2023-06-10T05:28:11.695Z,76.94
2023-06-10T05:29:10.418Z,76.70
2023-06-10T05:30:10.459Z,76.80
2023-06-10T05:31:10.543Z,76.26
2023-06-10T05:32:10.732Z,75.72
2023-06-10T05:33:10.789Z,75.09
2023-06-10T05:34:10.776Z,74.55
2023-06-10T05:35:11.279Z,73.71
2023-06-10T05:36:10.944Z,72.17
2023-06-10T05:37:11.038Z,71.03
2023-06-10T05:38:11.139Z,71.09
2023-06-10T05:39:11.225Z,70.43
2023-06-10T05:40:11.285Z,69.69
2023-06-10T05:41:11.368Z,68.26
2023-06-10T05:42:11.453Z,67.52
2023-06-10T05:43:11.541Z,66.89
2023-06-10T05:44:14.157Z,66.03
2023-06-10T05:45:11.770Z,64.90
2023-06-10T05:46:11.787Z,63.74
2023-06-10T05:47:11.826Z,62.91
2023-06-10T05:48:12.009Z,61.69
2023-06-10T05:49:11.969Z,60.63
2023-06-10T05:50:12.021Z,59.81
2023-06-10T05:51:12.123Z,58.95
2023-06-10T05:52:12.203Z,57.93
2023-06-10T05:53:12.306Z,57.51
2023-06-10T05:54:12.377Z,56.88
2023-06-10T05:55:12.697Z,56.06
2023-06-10T05:56:12.528Z,55.54
2023-06-10T05:57:12.626Z,55.83
2023-06-10T05:58:12.718Z,56.01
2023-06-10T05:59:12.808Z,55.32
2023-06-10T06:00:12.887Z,55.81
2023-06-10T06:01:12.995Z,55.64
2023-06-10T06:02:13.077Z,56.78
2023-06-10T06:03:13.188Z,56.85
2023-06-10T06:04:13.238Z,56.51
2023-06-10T06:05:13.777Z,55.58
2023-06-10T06:06:13.388Z,54.64
2023-06-10T06:07:13.451Z,53.82
2023-06-10T06:08:13.585Z,53.20
2023-06-10T06:09:13.610Z,52.26
2023-06-10T06:10:13.656Z,51.45
2023-06-10T06:11:13.762Z,50.73
2023-06-10T06:12:13.815Z,50.19
2023-06-10T06:13:13.937Z,49.48
2023-06-10T06:14:13.982Z,49.26
2023-06-10T06:15:14.075Z,48.86
2023-06-10T06:16:14.187Z,49.38
2023-06-10T06:17:14.255Z,49.77
2023-06-10T06:18:14.350Z,49.85
2023-06-10T06:19:14.811Z,49.23
2023-06-10T06:20:14.491Z,48.94
2023-06-10T06:21:14.593Z,49.43
2023-06-10T06:22:14.655Z,49.40
2023-06-10T06:23:14.783Z,49.01
2023-06-10T06:24:14.876Z,48.18
2023-06-10T06:25:15.042Z,47.58
2023-06-10T06:26:14.983Z,47.19
2023-06-10T06:27:15.086Z,46.50
2023-06-10T06:28:15.169Z,45.92
2023-06-10T06:29:15.253Z,44.95
2023-06-10T06:30:15.309Z,45.94
2023-06-10T06:31:15.430Z,46.53
2023-06-10T06:32:15.469Z,45.45
2023-06-10T06:33:15.615Z,45.42
2023-06-10T06:34:16.839Z,45.81
2023-06-10T06:35:15.736Z,44.81
2023-06-10T06:36:15.784Z,43.41
2023-06-10T06:37:15.881Z,42.11
2023-06-10T06:38:15.987Z,41.02
2023-06-10T06:39:16.019Z,41.02
2023-06-10T06:40:16.091Z,40.61
2023-06-10T06:41:16.245Z,39.61
2023-06-10T06:42:16.278Z,38.53
2023-06-10T06:43:16.598Z,38.80
2023-06-10T06:44:16.461Z,38.18
2023-06-10T06:45:16.563Z,37.87
2023-06-10T06:46:17.779Z,37.59
2023-06-10T06:47:16.712Z,38.08
2023-06-10T06:48:16.902Z,38.06
2023-06-10T06:49:16.823Z,38.08
2023-06-10T06:50:16.883Z,37.49
2023-06-10T06:51:16.988Z,36.79
2023-06-10T06:52:17.067Z,36.79
2023-06-10T06:53:17.157Z,36.47
2023-06-10T06:54:17.206Z,36.38
2023-06-10T06:55:17.278Z,35.68
2023-06-10T06:56:17.337Z,36.07
2023-06-10T06:57:17.416Z,35.74
2023-06-10T06:58:19.088Z,35.24
2023-06-10T06:59:17.560Z,35.12
2023-06-10T07:00:17.629Z,34.91
2023-06-10T07:01:17.711Z,34.12
2023-06-10T07:02:17.806Z,35.10
2023-06-10T07:03:17.886Z,35.10
2023-06-10T07:04:18.011Z,34.81
2023-06-10T07:05:18.082Z,34.91
2023-06-10T07:06:18.166Z,34.84
2023-06-10T07:07:18.257Z,34.77
2023-06-10T07:08:18.316Z,35.97
2023-06-10T07:09:18.402Z,36.67
2023-06-10T07:10:18.474Z,36.26
2023-06-10T07:11:18.546Z,35.66
2023-06-10T07:12:18.613Z,35.25
2023-06-10T07:13:18.694Z,35.55
2023-06-10T07:14:18.818Z,35.64
2023-06-10T07:15:18.869Z,35.24
2023-06-10T07:16:19.072Z,35.53
2023-06-10T07:17:19.174Z,35.63
2023-06-10T07:18:19.132Z,35.33
2023-06-10T07:19:19.238Z,35.14
2023-06-10T07:20:19.292Z,35.22
2023-06-10T07:21:19.343Z,35.12
2023-06-10T07:22:19.406Z,35.41
2023-06-10T07:23:19.516Z,35.02
2023-06-10T07:24:19.668Z,35.22
2023-06-10T07:25:19.667Z,34.40
2023-06-10T07:26:19.737Z,33.80
2023-06-10T07:27:19.791Z,33.88
2023-06-10T07:28:19.904Z,33.39
2023-06-10T07:29:19.983Z,32.99
2023-06-10T07:30:20.041Z,32.79
2023-06-10T07:31:20.202Z,33.17
2023-06-10T07:32:20.211Z,32.59
2023-06-10T07:33:20.291Z,32.79
2023-06-10T07:34:20.385Z,32.62
2023-06-10T07:35:20.442Z,33.25
2023-06-10T07:36:20.544Z,32.92
2023-06-10T07:37:20.589Z,33.92
2023-06-10T07:38:20.668Z,33.61
2023-06-10T07:39:20.795Z,33.59
2023-06-10T07:40:20.830Z,32.79
2023-06-10T07:41:20.884Z,32.40
2023-06-10T07:42:20.976Z,32.78
2023-06-10T07:43:21.032Z,31.98
2023-06-10T07:44:21.175Z,31.27
2023-06-10T07:45:21.226Z,31.18
2023-06-10T07:46:21.433Z,31.26
2023-06-10T07:47:21.392Z,31.77
2023-06-10T07:48:21.468Z,32.17
2023-06-10T07:49:21.585Z,32.07
2023-06-10T07:50:21.644Z,31.66
2023-06-10T07:51:21.705Z,31.18
2023-06-10T07:52:21.811Z,31.26
2023-06-10T07:53:21.881Z,30.66
2023-06-10T07:54:21.983Z,30.47
2023-06-10T07:55:22.032Z,30.98
2023-06-10T07:56:22.205Z,31.30
2023-06-10T07:57:22.212Z,32.39
2023-06-10T07:58:22.301Z,31.90
2023-06-10T07:59:22.403Z,32.40
2023-06-10T08:00:22.447Z,32.50
2023-06-10T08:01:22.498Z,32.18
2023-06-10T08:02:25.513Z,31.66
2023-06-10T08:03:22.719Z,31.04
2023-06-10T08:04:22.981Z,30.23
2023-06-10T08:05:22.972Z,30.02
2023-06-10T08:06:22.925Z,29.24
2023-06-10T08:07:22.996Z,29.66
2023-06-10T08:08:23.090Z,30.47
2023-06-10T08:09:23.190Z,29.60
2023-06-10T08:10:23.246Z,30.19
2023-06-10T08:11:23.319Z,30.57
2023-06-10T08:12:23.387Z,30.26
2023-06-10T08:13:23.459Z,29.85
2023-06-10T08:14:23.598Z,30.31
2023-06-10T08:15:23.643Z,28.85
2023-06-10T08:16:23.758Z,28.83
2023-06-10T08:17:23.830Z,29.63
2023-06-10T08:18:23.871Z,29.83
2023-06-10T08:19:23.949Z,29.91
2023-06-10T08:20:24.086Z,29.70
2023-06-10T08:21:24.113Z,29.10
2023-06-10T08:22:24.189Z,28.70
2023-06-10T08:23:24.258Z,28.40
2023-06-10T08:24:24.522Z,28.58
2023-06-10T08:25:24.422Z,28.29
2023-06-10T08:26:24.502Z,28.78
2023-06-10T08:27:24.582Z,28.41
2023-06-10T08:28:24.649Z,29.20
2023-06-10T08:29:24.775Z,28.81
2023-06-10T08:30:24.852Z,28.78
2023-06-10T08:31:24.952Z,28.50
2023-06-10T08:32:25.158Z,28.40
2023-06-10T08:33:25.127Z,28.03
2023-06-10T08:34:25.254Z,28.75
2023-06-10T08:35:25.316Z,29.83
2023-06-10T08:36:25.416Z,29.24
2023-06-10T08:37:25.520Z,29.61
2023-06-10T08:38:25.609Z,29.10
2023-06-10T08:39:25.725Z,28.02
2023-06-10T08:40:25.808Z,28.19
2023-06-10T08:41:25.893Z,28.19
2023-06-10T08:42:25.996Z,28.29
2023-06-10T08:43:26.017Z,28.11
2023-06-10T08:44:26.171Z,28.51
2023-06-10T08:45:26.178Z,28.31
2023-06-10T08:46:26.277Z,29.33
2023-06-10T08:47:26.485Z,29.60
2023-06-10T08:48:26.550Z,29.10
2023-06-10T08:49:26.565Z,28.51
2023-06-10T08:50:26.642Z,28.09
2023-06-10T08:51:26.780Z,28.05
2023-06-10T08:52:26.858Z,27.16
2023-06-10T08:53:26.872Z,27.08
2023-06-10T08:54:26.994Z,27.01
2023-06-10T08:55:28.910Z,27.50
2023-06-10T08:56:27.153Z,28.19
2023-06-10T08:57:27.217Z,27.81
2023-06-10T08:58:27.281Z,27.42
2023-06-10T08:59:27.376Z,27.20
2023-06-10T09:00:27.546Z,27.20
2023-06-10T09:01:27.561Z,27.68
2023-06-10T09:02:27.567Z,26.72
2023-06-10T09:03:27.635Z,27.11
2023-06-10T09:04:27.727Z,27.62
2023-06-10T09:05:27.753Z,28.12
2023-06-10T09:06:27.865Z,28.61
2023-06-10T09:07:27.930Z,28.31
2023-06-10T09:08:28.039Z,28.09
2023-06-10T09:09:28.116Z,27.31
2023-06-10T09:10:28.189Z,26.55
2023-06-10T09:11:28.245Z,27.64
2023-06-10T09:12:28.347Z,28.44
2023-06-10T09:13:28.419Z,28.55
2023-06-10T09:14:28.490Z,28.55
2023-06-10T09:15:28.543Z,28.45
2023-06-10T09:16:28.668Z,29.02
2023-06-10T09:17:28.722Z,28.64
2023-06-10T09:18:28.816Z,29.16
2023-06-10T09:19:28.883Z,29.48
2023-06-10T09:20:28.947Z,30.35
2023-06-10T09:21:29.053Z,30.63
2023-06-10T09:22:29.154Z,30.44
2023-06-10T09:23:29.240Z,30.34
2023-06-10T09:24:29.300Z,30.23
2023-06-10T09:25:29.352Z,30.13
2023-06-10T09:26:29.459Z,30.13
2023-06-10T09:27:29.527Z,30.04
2023-06-10T09:28:29.604Z,29.64
2023-06-10T09:29:29.765Z,29.84
2023-06-10T09:30:30.015Z,29.37
2023-06-10T09:31:29.935Z,29.66
2023-06-10T09:32:29.931Z,29.87
2023-06-10T09:33:30.016Z,30.85
2023-06-10T09:34:30.107Z,30.84
2023-06-10T09:35:30.210Z,30.84
2023-06-10T09:36:30.286Z,30.45
2023-06-10T09:37:30.330Z,30.24
2023-06-10T09:38:30.432Z,30.74
2023-06-10T09:39:30.510Z,30.57
2023-06-10T09:40:30.628Z,31.35
2023-06-10T09:41:30.679Z,31.34
2023-06-10T09:42:30.790Z,30.54
2023-06-10T09:43:30.832Z,29.83
2023-06-10T09:44:30.929Z,29.02
2023-06-10T09:45:31.088Z,28.52
2023-06-10T09:46:31.193Z,27.92
2023-06-10T09:47:31.199Z,27.51
2023-06-10T09:48:31.241Z,27.80
2023-06-10T09:49:31.313Z,27.40
2023-06-10T09:50:31.452Z,27.49
2023-06-10T09:51:31.486Z,27.92
2023-06-10T09:52:31.791Z,28.80
2023-06-10T09:53:31.636Z,28.88
2023-06-10T09:54:31.742Z,29.38
2023-06-10T09:55:31.840Z,29.88
2023-06-10T09:56:31.935Z,29.99
2023-06-10T09:57:32.051Z,29.70
2023-06-10T09:58:32.050Z,30.13
2023-06-10T09:59:32.126Z,29.84
2023-06-10T10:00:32.256Z,29.84
2023-06-10T10:01:32.321Z,28.70
2023-06-10T10:02:32.389Z,29.88
2023-06-10T10:03:32.456Z,29.97
2023-06-10T10:04:32.682Z,30.35
2023-06-10T10:05:32.769Z,29.97
2023-06-10T10:06:32.755Z,30.18
2023-06-10T10:07:32.808Z,29.60
2023-06-10T10:08:32.921Z,30.21
2023-06-10T10:09:32.970Z,30.77
2023-06-10T10:10:33.103Z,31.47
2023-06-10T10:11:33.187Z,32.18
2023-06-10T10:12:33.216Z,31.60
2023-06-10T10:13:33.295Z,31.77
2023-06-10T10:14:33.447Z,31.27
2023-06-10T10:15:33.545Z,31.08
2023-06-10T10:16:33.649Z,30.58
2023-06-10T10:17:33.764Z,30.47
2023-06-10T10:18:33.800Z,30.15
2023-06-10T10:19:33.806Z,29.94
2023-06-10T10:20:33.924Z,29.61
2023-06-10T10:21:33.969Z,29.33
2023-06-10T10:22:34.070Z,30.23
2023-06-10T10:23:34.241Z,30.02
2023-06-10T10:24:34.377Z,29.36
2023-06-10T10:25:36.160Z,29.74
2023-06-10T10:26:34.498Z,30.13
2023-06-10T10:27:34.476Z,30.52
2023-06-10T10:28:34.557Z,30.21
2023-06-10T10:29:34.700Z,29.71
2023-06-10T10:30:34.719Z,29.73
2023-06-10T10:31:34.856Z,30.11
2023-06-10T10:32:34.944Z,29.84
2023-06-10T10:33:35.042Z,30.24
2023-06-10T10:34:35.046Z,30.35
2023-06-10T10:35:35.094Z,30.37
2023-06-10T10:36:35.242Z,30.95
2023-06-10T10:37:35.262Z,30.97
2023-06-10T10:38:35.354Z,30.40
2023-06-10T10:39:35.439Z,31.41
2023-06-10T10:40:35.544Z,31.92
2023-06-10T10:41:35.670Z,32.40
2023-06-10T10:42:35.708Z,32.68
2023-06-10T10:43:35.791Z,33.26
2023-06-10T10:44:35.886Z,34.11
2023-06-10T10:45:35.954Z,35.00
2023-06-10T10:46:36.083Z,35.38
2023-06-10T10:47:36.128Z,34.97
2023-06-10T10:48:36.207Z,33.82
2023-06-10T10:49:36.308Z,34.91
2023-06-10T10:50:36.386Z,34.03
2023-06-10T10:51:36.478Z,33.72
2023-06-10T10:52:36.536Z,33.83
2023-06-10T10:53:36.655Z,34.22
2023-06-10T10:54:36.710Z,31.49
2023-06-10T10:55:36.811Z,31.28
2023-06-10T10:56:36.928Z,31.67
2023-06-10T10:57:36.972Z,31.19
2023-06-10T10:58:37.063Z,31.48
2023-06-10T10:59:37.172Z,31.57
2023-06-10T11:00:37.308Z,32.45
2023-06-10T11:01:37.410Z,32.28
2023-06-10T11:02:37.499Z,32.58
2023-06-10T11:03:37.564Z,33.28
2023-06-10T11:04:37.770Z,33.09
2023-06-10T11:05:37.704Z,34.14
2023-06-10T11:06:37.808Z,33.95
2023-06-10T11:07:37.839Z,34.09
2023-06-10T11:08:37.941Z,34.48
2023-06-10T11:09:38.025Z,34.18
2023-06-10T11:10:38.153Z,35.04
2023-06-10T11:11:38.208Z,33.28
2023-06-10T11:12:38.263Z,34.09
2023-06-10T11:13:38.349Z,33.22
2023-06-10T11:14:38.444Z,33.59
2023-06-10T11:15:38.539Z,32.91
2023-06-10T11:16:38.682Z,34.18
2023-06-10T11:17:38.778Z,33.69
2023-06-10T11:18:38.753Z,33.67
2023-06-10T11:19:38.863Z,33.59
2023-06-10T11:20:38.935Z,32.81
2023-06-10T11:21:39.113Z,34.00
2023-06-10T11:22:39.121Z,34.60
2023-06-10T11:23:39.305Z,34.70
2023-06-10T11:24:39.335Z,34.60
2023-06-10T11:25:39.375Z,34.19
2023-06-10T11:26:39.477Z,33.69
2023-06-10T11:27:39.602Z,33.01
2023-06-10T11:28:39.643Z,33.59
2023-06-10T11:29:39.737Z,33.98
2023-06-10T11:30:39.772Z,32.79
2023-06-10T11:31:40.012Z,32.79
2023-06-10T11:32:40.042Z,33.18
2023-06-10T11:33:40.100Z,31.43
2023-06-10T11:34:40.097Z,32.21
2023-06-10T11:35:40.195Z,32.48
2023-06-10T11:36:40.272Z,32.39
2023-06-10T11:37:40.329Z,32.87
2023-06-10T11:38:40.394Z,34.16
2023-06-10T11:39:40.455Z,33.79
2023-06-10T11:40:40.512Z,34.19
2023-06-10T11:41:40.622Z,34.31
2023-06-10T11:42:40.674Z,34.91
2023-06-10T11:43:40.772Z,35.32
2023-06-10T11:44:40.832Z,35.53
2023-06-10T11:45:40.936Z,35.73
2023-06-10T11:46:41.147Z,36.94
2023-06-10T11:47:41.191Z,37.15
2023-06-10T11:48:41.165Z,37.37
2023-06-10T11:49:43.177Z,37.66
2023-06-10T11:50:41.308Z,37.86
2023-06-10T11:51:41.441Z,37.37
2023-06-10T11:52:41.483Z,37.86
2023-06-10T11:53:41.585Z,37.27
2023-06-10T11:54:41.633Z,37.56
2023-06-10T11:55:41.742Z,37.46
2023-06-10T11:56:41.843Z,37.46
2023-06-10T11:57:41.902Z,37.46
2023-06-10T11:58:41.963Z,37.56
2023-06-10T11:59:42.055Z,37.66
2023-06-10T12:00:42.118Z,37.96
2023-06-10T12:01:44.071Z,38.15
2023-06-10T12:02:42.346Z,37.76
2023-06-10T12:03:42.523Z,38.15
2023-06-10T12:04:42.460Z,38.25
2023-06-10T12:05:42.641Z,38.15
2023-06-10T12:06:42.654Z,38.43
2023-06-10T12:07:42.728Z,38.33
2023-06-10T12:08:42.778Z,37.84
2023-06-10T12:09:42.874Z,38.45
2023-06-10T12:10:42.936Z,38.25
2023-06-10T12:11:43.048Z,37.88
2023-06-10T12:12:43.072Z,38.07
2023-06-10T12:13:43.180Z,38.37
2023-06-10T12:14:43.246Z,38.46
2023-06-10T12:15:43.363Z,38.37
2023-06-10T12:16:43.437Z,37.88
2023-06-10T12:17:43.536Z,38.06
2023-06-10T12:18:43.566Z,37.46
2023-06-10T12:19:43.680Z,37.07
2023-06-10T12:20:43.734Z,36.49
2023-06-10T12:21:43.905Z,36.98
2023-06-10T12:22:43.985Z,36.09
2023-06-10T12:23:44.041Z,34.33
2023-06-10T12:24:44.107Z,33.15
2023-06-10T12:25:44.204Z,31.89
2023-06-10T12:26:44.279Z,32.78
2023-06-10T12:27:44.347Z,33.95
2023-06-10T12:28:44.435Z,33.07
2023-06-10T12:29:44.501Z,32.56
2023-06-10T12:30:44.569Z,33.44
2023-06-10T12:31:45.488Z,33.33
2023-06-10T12:32:44.759Z,33.51
2023-06-10T12:33:44.815Z,33.92
2023-06-10T12:34:44.876Z,34.41
2023-06-10T12:35:44.964Z,33.02
2023-06-10T12:36:45.009Z,30.47
2023-06-10T12:37:45.134Z,31.16
2023-06-10T12:38:45.174Z,32.53
2023-06-10T12:39:45.271Z,31.17
2023-06-10T12:40:45.333Z,32.74
2023-06-10T12:41:45.429Z,31.94
2023-06-10T12:42:47.065Z,31.45
2023-06-10T12:43:45.596Z,31.04
2023-06-10T12:44:45.658Z,30.26
2023-06-10T12:45:45.790Z,29.97
2023-06-10T12:46:45.797Z,30.36
2023-06-10T12:47:46.024Z,29.58
2023-06-10T12:48:45.928Z,30.94
2023-06-10T12:49:46.074Z,31.04
2023-06-10T12:50:46.101Z,31.63
2023-06-10T12:51:46.170Z,30.85
2023-06-10T12:52:46.263Z,30.36
2023-06-10T12:53:46.338Z,30.65